createdAt,value
2022-08-26T00:01:57.667Z,6.03
2022-08-26T00:04:26.903Z,6.32
2022-08-26T00:06:55.728Z,5.97
2022-08-26T00:09:24.782Z,6.30
2022-08-26T00:11:53.446Z,6.93
2022-08-26T00:14:21.517Z,6.90
2022-08-26T00:16:50.955Z,7.30
2022-08-26T00:19:20.859Z,7.22
2022-08-26T00:21:50.256Z,6.13
2022-08-26T00:24:20.767Z,7.03
2022-08-26T00:26:48.939Z,7.50
2022-08-26T00:29:17.300Z,7.15
2022-08-26T00:31:45.821Z,7.22
2022-08-26T00:34:16.639Z,7.22
2022-08-26T00:36:49.331Z,6.68
2022-08-26T00:39:21.005Z,7.15
2022-08-26T00:41:50.476Z,8.00
2022-08-26T00:44:19.513Z,7.53
2022-08-26T00:46:50.004Z,6.82
2022-08-26T00:49:22.821Z,6.90
2022-08-26T00:51:54.841Z,7.32
2022-08-26T00:54:27.023Z,7.47
2022-08-26T00:56:57.986Z,7.18
2022-08-26T00:59:28.928Z,7.07
2022-08-26T01:04:34.948Z,6.35
2022-08-26T01:07:05.470Z,7.45
2022-08-26T01:09:33.744Z,7.25
2022-08-26T01:12:03.380Z,6.55
2022-08-26T01:14:37.495Z,7.53
2022-08-26T01:17:07.178Z,6.82
2022-08-26T01:19:43.489Z,7.35
2022-08-26T01:22:13.746Z,6.78
2022-08-26T01:24:43.692Z,6.85
2022-08-26T01:27:14.421Z,6.95
2022-08-26T01:29:43.913Z,7.07
2022-08-26T01:32:14.355Z,6.40
2022-08-26T01:34:42.457Z,6.93
2022-08-26T01:37:13.769Z,7.13
2022-08-26T01:39:48.037Z,6.47
2022-08-26T01:42:17.051Z,7.20
2022-08-26T01:44:48.810Z,7.10
2022-08-26T01:47:17.874Z,7.95
2022-08-26T01:49:47.652Z,7.88
2022-08-26T01:52:28.392Z,8.57
2022-08-26T01:54:58.767Z,7.72
2022-08-26T01:57:27.078Z,8.13
2022-08-26T01:59:56.981Z,8.50
2022-08-26T02:02:25.326Z,8.75
2022-08-26T02:04:55.819Z,8.18
2022-08-26T02:07:26.504Z,8.02
2022-08-26T02:09:55.011Z,8.30
2022-08-26T02:12:24.475Z,8.60
2022-08-26T02:14:55.985Z,8.63
2022-08-26T02:17:27.473Z,8.02
2022-08-26T02:19:55.827Z,9.02
2022-08-26T02:22:24.871Z,8.65
2022-08-26T02:24:55.805Z,8.55
2022-08-26T02:27:28.506Z,8.73
2022-08-26T02:30:07.121Z,9.57
2022-08-26T02:32:35.046Z,8.85
2022-08-26T02:35:03.324Z,9.77
2022-08-26T02:37:32.687Z,9.85
2022-08-26T02:40:02.250Z,8.85
2022-08-26T02:42:32.648Z,8.93
2022-08-26T02:45:00.681Z,9.65
2022-08-26T02:47:29.114Z,9.65
2022-08-26T02:49:57.278Z,10.18
2022-08-26T02:52:25.413Z,10.27
2022-08-26T02:54:53.484Z,9.48
2022-08-26T02:57:22.210Z,9.80
2022-08-26T02:59:51.594Z,10.55
2022-08-26T03:02:19.758Z,10.30
2022-08-26T03:04:57.419Z,10.05
2022-08-26T03:07:26.343Z,9.65
2022-08-26T03:09:54.240Z,10.05
2022-08-26T03:12:22.202Z,10.98
2022-08-26T03:14:51.530Z,10.10
2022-08-26T03:17:21.087Z,10.20
2022-08-26T03:19:52.893Z,9.88
2022-08-26T03:22:25.450Z,10.80
2022-08-26T03:24:53.423Z,11.02
2022-08-26T03:27:21.630Z,11.23
2022-08-26T03:30:08.634Z,11.13
2022-08-26T03:32:39.822Z,10.90
2022-08-26T03:35:10.203Z,11.38
2022-08-26T03:37:38.384Z,12.13
2022-08-26T03:40:09.044Z,11.32
2022-08-26T03:42:37.786Z,11.80
2022-08-26T03:45:10.424Z,11.73
2022-08-26T03:47:38.687Z,12.43
2022-08-26T03:50:08.523Z,12.10
2022-08-26T03:52:43.041Z,12.95
2022-08-26T03:55:12.401Z,11.88
2022-08-26T03:57:40.371Z,12.63
2022-08-26T04:00:18.270Z,12.73
2022-08-26T04:02:51.169Z,13.20
2022-08-26T04:05:22.987Z,12.57
2022-08-26T04:07:51.120Z,12.80
2022-08-26T04:10:28.694Z,12.73
2022-08-26T04:12:58.882Z,12.48
2022-08-26T04:15:28.803Z,13.27
2022-08-26T04:17:57.331Z,13.23
2022-08-26T04:20:26.172Z,13.70
2022-08-26T04:22:54.585Z,14.70
2022-08-26T04:25:22.557Z,14.20
2022-08-26T04:27:52.285Z,15.13
2022-08-26T04:30:21.209Z,13.50
2022-08-26T04:32:50.852Z,13.57
2022-08-26T04:35:22.773Z,13.82
2022-08-26T04:37:54.040Z,15.07
2022-08-26T04:40:22.227Z,14.27
2022-08-26T04:42:50.269Z,14.82
2022-08-26T04:45:19.072Z,14.27
2022-08-26T04:47:56.827Z,13.68
2022-08-26T04:50:25.783Z,14.50
2022-08-26T04:52:55.332Z,13.85
2022-08-26T04:55:38.443Z,13.43
2022-08-26T04:58:10.193Z,13.75
2022-08-26T05:00:39.397Z,14.15
2022-08-26T05:03:10.287Z,14.18
2022-08-26T05:05:43.235Z,13.55
2022-08-26T05:08:12.239Z,14.00
2022-08-26T05:10:41.989Z,14.57
2022-08-26T05:13:14.226Z,13.38
2022-08-26T05:15:44.507Z,14.60
2022-08-26T05:18:16.366Z,14.57
2022-08-26T05:20:46.538Z,13.00
2022-08-26T05:23:15.107Z,14.35
2022-08-26T05:25:45.420Z,13.82
2022-08-26T05:28:14.868Z,14.68
2022-08-26T05:30:44.525Z,14.63
2022-08-26T05:33:14.031Z,14.77
2022-08-26T05:35:43.189Z,13.82
2022-08-26T05:38:14.476Z,13.55
2022-08-26T05:40:44.589Z,13.43
2022-08-26T05:43:13.968Z,12.57
2022-08-26T05:45:46.182Z,13.00
2022-08-26T05:48:16.690Z,12.18
2022-08-26T05:50:46.478Z,12.63
2022-08-26T05:53:17.540Z,13.45
2022-08-26T05:55:47.042Z,13.57
2022-08-26T05:58:15.140Z,12.90
2022-08-26T06:00:45.684Z,13.63
2022-08-26T06:03:15.355Z,13.85
2022-08-26T06:05:43.385Z,13.95
2022-08-26T06:08:14.139Z,13.63
2022-08-26T06:10:49.716Z,13.10
2022-08-26T06:13:20.094Z,12.65
2022-08-26T06:15:50.764Z,13.10
2022-08-26T06:18:21.612Z,13.00
2022-08-26T06:20:57.271Z,12.80
2022-08-26T06:23:44.407Z,12.73
2022-08-26T06:26:12.758Z,12.50
2022-08-26T06:28:40.695Z,11.73
2022-08-26T06:31:11.641Z,12.52
2022-08-26T06:33:41.070Z,12.50
2022-08-26T06:36:09.192Z,11.90
2022-08-26T06:38:37.207Z,11.70
2022-08-26T06:41:05.133Z,11.82
2022-08-26T06:43:33.149Z,11.18
2022-08-26T06:46:02.945Z,11.93
2022-08-26T06:48:33.431Z,12.30
2022-08-26T06:51:08.956Z,11.20
2022-08-26T06:53:36.959Z,10.90
2022-08-26T06:56:07.708Z,11.43
2022-08-26T06:58:38.770Z,10.55
2022-08-26T07:01:16.464Z,11.20
2022-08-26T07:03:46.723Z,11.35
2022-08-26T07:06:18.472Z,10.63
2022-08-26T07:08:46.701Z,11.02
2022-08-26T07:11:15.830Z,10.70
2022-08-26T07:13:44.832Z,12.88
2022-08-26T07:16:15.532Z,11.35
2022-08-26T07:18:45.173Z,10.35
2022-08-26T07:21:18.301Z,10.20
2022-08-26T07:23:46.931Z,10.38
2022-08-26T07:26:17.996Z,9.88
2022-08-26T07:28:47.098Z,11.13
2022-08-26T07:31:16.360Z,11.23
2022-08-26T07:33:45.025Z,10.93
2022-08-26T07:36:15.672Z,11.68
2022-08-26T07:38:45.196Z,11.07
2022-08-26T07:41:14.239Z,12.85
2022-08-26T07:43:42.348Z,11.32
2022-08-26T07:46:16.302Z,11.48
2022-08-26T07:48:46.154Z,11.15
2022-08-26T07:51:16.204Z,12.07
2022-08-26T07:53:48.024Z,11.18
2022-08-26T07:56:20.679Z,11.23
2022-08-26T07:58:51.580Z,10.50
2022-08-26T08:01:20.351Z,11.60
2022-08-26T08:03:51.490Z,10.50
2022-08-26T08:06:21.789Z,10.32
2022-08-26T08:08:51.639Z,9.63
2022-08-26T08:11:21.191Z,11.13
2022-08-26T08:13:56.055Z,9.75
2022-08-26T08:16:26.418Z,11.05
2022-08-26T08:18:54.783Z,10.07
2022-08-26T08:21:25.363Z,9.88
2022-08-26T08:23:54.068Z,8.95
2022-08-26T08:26:22.291Z,9.20
2022-08-26T08:28:50.361Z,9.18
2022-08-26T08:31:45.083Z,9.05
2022-08-26T08:34:10.443Z,9.70
2022-08-26T08:36:39.785Z,9.13
2022-08-26T08:39:07.664Z,9.55
2022-08-26T08:41:50.117Z,9.70
2022-08-26T08:46:54.605Z,8.83
2022-08-26T08:49:23.210Z,8.02
2022-08-26T08:51:57.323Z,7.78
2022-08-26T08:54:26.859Z,8.27
2022-08-26T08:57:00.965Z,7.88
2022-08-26T08:59:34.179Z,7.43
2022-08-26T09:02:09.653Z,8.43
2022-08-26T09:04:59.291Z,6.95
2022-08-26T09:07:35.904Z,7.15
2022-08-26T09:10:07.774Z,6.75
2022-08-26T09:12:36.501Z,7.30
2022-08-26T09:15:07.587Z,7.60
2022-08-26T09:17:41.923Z,7.28
2022-08-26T09:20:18.220Z,6.35
2022-08-26T09:22:47.627Z,7.28
2022-08-26T09:25:16.225Z,7.03
2022-08-26T09:27:50.399Z,7.05
2022-08-26T09:30:26.509Z,7.53
2022-08-26T09:33:02.620Z,6.63
2022-08-26T09:35:32.850Z,7.03
2022-08-26T09:38:02.192Z,7.13
2022-08-26T09:40:34.798Z,6.93
2022-08-26T09:43:15.828Z,7.18
2022-08-26T09:45:50.812Z,7.50
2022-08-26T09:48:29.956Z,6.90
2022-08-26T09:50:59.563Z,6.55
2022-08-26T09:53:30.906Z,6.40
2022-08-26T09:56:16.397Z,6.50
2022-08-26T09:58:47.129Z,6.25
2022-08-26T10:01:30.094Z,5.93
2022-08-26T10:04:06.482Z,6.97
2022-08-26T10:06:38.201Z,6.07
2022-08-26T10:09:10.774Z,6.95
2022-08-26T10:11:41.187Z,6.35
2022-08-26T10:14:12.084Z,5.97
2022-08-26T10:16:44.150Z,6.57
2022-08-26T10:19:14.787Z,6.35
2022-08-26T10:21:49.780Z,5.95
2022-08-26T10:24:26.388Z,6.55
2022-08-26T10:27:01.075Z,6.05
2022-08-26T10:29:34.276Z,6.40
2022-08-26T10:32:05.795Z,6.22
2022-08-26T10:34:34.551Z,6.67
2022-08-26T10:37:15.699Z,6.40
2022-08-26T10:39:57.276Z,7.20
2022-08-26T10:45:00.181Z,6.35
2022-08-26T10:47:34.935Z,7.35
2022-08-26T10:50:04.573Z,7.25
2022-08-26T10:52:43.785Z,6.10
2022-08-26T10:55:19.809Z,6.88
2022-08-26T10:57:52.577Z,6.65
2022-08-26T11:00:40.199Z,6.70
2022-08-26T11:03:24.604Z,7.20
2022-08-26T11:06:17.301Z,6.57
2022-08-26T11:11:47.111Z,7.10
2022-08-26T11:14:46.076Z,7.72
2022-08-26T11:21:52.032Z,7.20
2022-08-26T11:24:48.386Z,7.90
2022-08-26T11:27:55.986Z,7.63
2022-08-26T11:30:45.121Z,7.10
2022-08-26T11:33:59.827Z,7.18
2022-08-26T11:37:06.189Z,8.65
2022-08-26T11:39:54.772Z,7.20
2022-08-26T11:42:31.073Z,6.32
2022-08-26T11:44:59.898Z,7.25
2022-08-26T11:47:32.737Z,7.80
2022-08-26T11:50:13.322Z,7.97
2022-08-26T11:52:41.332Z,6.80
2022-08-26T11:55:13.101Z,7.85
2022-08-26T12:00:15.850Z,7.55
2022-08-26T12:02:48.673Z,7.72
2022-08-26T12:05:21.543Z,7.63
2022-08-26T12:07:53.145Z,6.95
2022-08-26T12:10:30.273Z,7.55
2022-08-26T12:13:00.238Z,8.02
2022-08-26T12:15:29.523Z,7.22
2022-08-26T12:17:57.954Z,6.93
2022-08-26T12:20:45.944Z,6.03
2022-08-26T12:23:31.546Z,6.97
2022-08-26T12:26:06.890Z,6.68
2022-08-26T12:28:35.285Z,7.53
2022-08-26T12:31:05.372Z,6.95
2022-08-26T12:33:36.586Z,6.90
2022-08-26T12:36:05.393Z,7.18
2022-08-26T12:38:33.898Z,6.97
2022-08-26T12:41:02.004Z,6.53
2022-08-26T12:43:45.830Z,6.90
2022-08-26T12:46:16.346Z,6.88
2022-08-26T12:48:49.095Z,7.10
2022-08-26T12:51:25.987Z,6.65
2022-08-26T12:53:54.014Z,6.97
2022-08-26T12:56:30.047Z,7.22
2022-08-26T12:59:05.982Z,6.35
2022-08-26T13:01:39.696Z,6.70
2022-08-26T13:04:07.787Z,7.00
2022-08-26T13:06:35.900Z,7.07
2022-08-26T13:09:06.110Z,7.20
2022-08-26T13:11:35.691Z,7.00
2022-08-26T13:14:07.401Z,7.47
2022-08-26T13:16:35.854Z,6.70
2022-08-26T13:19:10.159Z,7.03
2022-08-26T13:21:42.940Z,5.57
2022-08-26T13:26:39.740Z,3.80
2022-08-26T13:29:10.494Z,3.92
2022-08-26T13:31:40.958Z,3.83
2022-08-26T13:34:09.628Z,3.90
2022-08-26T13:36:37.585Z,3.30
2022-08-26T13:39:05.711Z,3.60
2022-08-26T13:41:33.897Z,3.70
2022-08-26T13:44:01.817Z,3.17
2022-08-26T13:46:31.158Z,3.22
2022-08-26T13:48:59.705Z,3.72
2022-08-26T13:51:28.959Z,4.00
2022-08-26T13:53:57.952Z,4.10
2022-08-26T13:56:27.442Z,4.55
2022-08-26T13:58:55.414Z,4.75
2022-08-26T14:01:23.809Z,4.85
2022-08-26T14:03:53.250Z,4.43
2022-08-26T14:06:21.266Z,4.75
2022-08-26T14:08:49.698Z,4.25
2022-08-26T14:11:18.281Z,4.25
2022-08-26T14:13:46.210Z,4.80
2022-08-26T14:16:18.834Z,3.47
2022-08-26T14:18:50.588Z,4.38
2022-08-26T14:21:20.535Z,4.18
2022-08-26T14:23:48.525Z,3.80
2022-08-26T14:26:27.976Z,2.80
2022-08-26T14:28:58.185Z,3.00
2022-08-26T14:31:26.994Z,3.22
2022-08-26T14:33:56.837Z,3.35
2022-08-26T14:36:29.201Z,3.33
2022-08-26T14:39:00.154Z,3.50
2022-08-26T14:41:28.362Z,3.50
2022-08-26T14:44:00.454Z,3.25
2022-08-26T14:46:29.737Z,3.50
2022-08-26T14:49:02.005Z,3.60
2022-08-26T14:54:16.073Z,3.63
2022-08-26T14:56:48.540Z,4.55
2022-08-26T14:59:20.713Z,4.00
2022-08-26T15:01:49.103Z,3.88
2022-08-26T15:04:17.592Z,4.40
2022-08-26T15:06:47.219Z,4.68
2022-08-26T15:09:15.733Z,5.20
2022-08-26T15:11:43.652Z,4.65
2022-08-26T15:14:14.729Z,4.70
2022-08-26T15:16:48.185Z,4.75
2022-08-26T15:19:16.301Z,4.68
2022-08-26T15:21:47.091Z,5.07
2022-08-26T15:24:16.450Z,5.15
2022-08-26T15:26:45.159Z,4.43
2022-08-26T15:29:13.411Z,5.10
2022-08-26T15:31:41.638Z,5.40
2022-08-26T15:34:16.054Z,4.93
2022-08-26T15:36:47.209Z,5.47
2022-08-26T15:39:16.585Z,5.35
2022-08-26T15:41:44.511Z,5.57
2022-08-26T15:44:13.931Z,5.25
2022-08-26T15:46:42.051Z,6.00
2022-08-26T15:49:16.995Z,5.97
2022-08-26T15:51:52.672Z,5.50
2022-08-26T15:54:22.515Z,5.75
2022-08-26T15:56:52.180Z,6.15
2022-08-26T15:59:21.454Z,7.40
2022-08-26T16:01:49.519Z,7.13
2022-08-26T16:04:18.491Z,6.18
2022-08-26T16:06:50.226Z,6.80
2022-08-26T16:09:18.682Z,7.07
2022-08-26T16:11:46.625Z,7.05
2022-08-26T16:14:14.576Z,6.90
2022-08-26T16:16:42.611Z,6.53
2022-08-26T16:19:11.534Z,6.50
2022-08-26T16:21:40.919Z,7.20
2022-08-26T16:24:10.637Z,7.65
2022-08-26T16:26:39.612Z,8.27
2022-08-26T16:29:09.291Z,7.80
2022-08-26T16:31:37.905Z,6.90
2022-08-26T16:34:06.196Z,7.15
2022-08-26T16:36:34.613Z,7.18
2022-08-26T16:39:02.695Z,7.93
2022-08-26T16:41:32.550Z,8.95
2022-08-26T16:44:00.674Z,9.57
2022-08-26T16:46:29.200Z,10.00
2022-08-26T16:48:58.250Z,11.32
2022-08-26T16:51:28.301Z,9.73
2022-08-26T16:53:57.327Z,9.82
2022-08-26T16:56:33.653Z,9.07
2022-08-26T16:59:04.060Z,9.20
2022-08-26T17:01:32.185Z,8.85
2022-08-26T17:04:00.138Z,8.95
2022-08-26T17:06:28.067Z,9.23
2022-08-26T17:08:55.962Z,9.73
2022-08-26T17:11:23.887Z,9.57
2022-08-26T17:13:51.822Z,9.70
2022-08-26T17:16:25.868Z,9.18
2022-08-26T17:18:55.902Z,9.48
2022-08-26T17:21:24.026Z,9.23
2022-08-26T17:23:51.950Z,9.05
2022-08-26T17:26:20.197Z,9.23
2022-08-26T17:28:48.149Z,8.18
2022-08-26T17:31:16.162Z,8.23
2022-08-26T17:33:48.859Z,8.20
2022-08-26T17:36:21.159Z,9.38
2022-08-26T17:38:50.454Z,8.68
2022-08-26T17:41:22.141Z,8.90
2022-08-26T17:43:50.035Z,9.63
2022-08-26T17:46:18.283Z,9.05
2022-08-26T17:48:48.343Z,8.75
2022-08-26T17:51:19.200Z,8.75
2022-08-26T17:53:47.840Z,8.93
2022-08-26T17:56:18.717Z,9.32
2022-08-26T17:58:48.210Z,8.05
2022-08-26T18:03:48.994Z,9.55
2022-08-26T18:06:16.968Z,12.45
2022-08-26T18:08:45.167Z,12.63
2022-08-26T18:11:15.561Z,13.68
2022-08-26T18:13:47.637Z,11.73
2022-08-26T18:16:17.354Z,11.68
2022-08-26T18:18:45.591Z,10.60
2022-08-26T18:21:17.009Z,11.23
2022-08-26T18:23:45.618Z,10.63
2022-08-26T18:26:17.609Z,11.20
2022-08-26T18:29:01.801Z,10.90
2022-08-26T18:31:30.488Z,9.98
2022-08-26T18:34:00.187Z,10.60
2022-08-26T18:36:31.654Z,9.60
2022-08-26T18:38:59.919Z,11.00
2022-08-26T18:41:30.148Z,10.93
2022-08-26T18:43:58.722Z,10.38
2022-08-26T18:46:28.315Z,10.80
2022-08-26T18:48:57.619Z,10.23
2022-08-26T18:51:27.195Z,10.32
2022-08-26T18:53:56.883Z,9.77
2022-08-26T18:56:25.185Z,9.63
2022-08-26T18:58:53.210Z,10.55
2022-08-26T19:01:25.465Z,10.95
2022-08-26T19:03:55.714Z,10.77
2022-08-26T19:06:25.302Z,11.25
2022-08-26T19:08:53.679Z,10.90
2022-08-26T19:11:32.492Z,10.55
2022-08-26T19:14:07.487Z,10.73
2022-08-26T19:16:35.803Z,9.98
2022-08-26T19:19:03.801Z,10.68
2022-08-26T19:21:33.382Z,10.65
2022-08-26T19:24:03.578Z,11.07
2022-08-26T19:26:33.166Z,10.25
2022-08-26T19:29:01.766Z,10.57
2022-08-26T19:31:29.727Z,11.90
2022-08-26T19:33:58.121Z,11.73
2022-08-26T19:36:27.735Z,11.07
2022-08-26T19:38:56.803Z,11.18
2022-08-26T19:41:37.091Z,11.63
2022-08-26T19:44:11.080Z,11.48
2022-08-26T19:49:12.471Z,12.52
2022-08-26T19:51:40.658Z,11.93
2022-08-26T19:54:08.713Z,12.80
2022-08-26T19:56:36.680Z,13.00
2022-08-26T19:59:07.013Z,12.70
2022-08-26T20:01:35.174Z,12.38
2022-08-26T20:04:04.110Z,12.75
2022-08-26T20:06:32.199Z,13.05
2022-08-26T20:09:00.085Z,12.70
2022-08-26T20:11:28.049Z,12.63
2022-08-26T20:13:57.148Z,12.57
2022-08-26T20:16:26.634Z,11.82
2022-08-26T20:19:12.136Z,11.15
2022-08-26T20:21:41.597Z,10.48
2022-08-26T20:24:12.814Z,11.07
2022-08-26T20:26:43.401Z,10.50
2022-08-26T20:29:12.948Z,10.35
2022-08-26T20:31:44.044Z,10.65
2022-08-26T20:34:13.202Z,10.43
2022-08-26T20:36:41.971Z,10.65
2022-08-26T20:39:10.739Z,9.52
2022-08-26T20:41:39.298Z,9.55
2022-08-26T20:44:08.073Z,9.15
2022-08-26T20:46:36.998Z,9.15
2022-08-26T20:49:07.405Z,9.50
2022-08-26T20:51:36.949Z,9.85
2022-08-26T20:54:05.746Z,9.88
2022-08-26T20:56:34.018Z,9.18
2022-08-26T20:59:02.690Z,9.43
2022-08-26T21:01:34.517Z,9.90
2022-08-26T21:04:04.120Z,8.43
2022-08-26T21:06:33.814Z,9.07
2022-08-26T21:09:02.490Z,8.63
2022-08-26T21:11:31.898Z,9.25
2022-08-26T21:14:16.051Z,8.93
2022-08-26T21:16:46.010Z,9.40
2022-08-26T21:19:16.146Z,9.20
2022-08-26T21:21:45.803Z,9.15
2022-08-26T21:24:13.958Z,8.55
2022-08-26T21:26:41.912Z,9.13
2022-08-26T21:29:10.482Z,8.95
2022-08-26T21:31:44.933Z,9.00
2022-08-26T21:34:14.174Z,9.45
2022-08-26T21:36:42.124Z,9.35
2022-08-26T21:39:12.172Z,9.55
2022-08-26T21:41:40.944Z,10.98
2022-08-26T21:44:09.738Z,8.52
2022-08-26T21:46:37.759Z,9.20
2022-08-26T21:49:07.900Z,9.20
2022-08-26T21:51:44.155Z,8.52
2022-08-26T21:54:14.207Z,8.75
2022-08-26T21:56:44.561Z,9.43
2022-08-26T21:59:12.909Z,9.82
2022-08-26T22:01:41.050Z,9.38
2022-08-26T22:04:10.129Z,9.07
2022-08-26T22:06:43.189Z,9.45
2022-08-26T22:09:11.901Z,9.20
2022-08-26T22:11:41.962Z,8.80
2022-08-26T22:14:09.935Z,8.30
2022-08-26T22:16:37.875Z,8.43
2022-08-26T22:19:05.886Z,8.02
2022-08-26T22:21:34.031Z,8.23
2022-08-26T22:24:02.315Z,8.02
2022-08-26T22:26:32.914Z,8.88
2022-08-26T22:29:03.222Z,8.20
2022-08-26T22:31:38.035Z,7.82
2022-08-26T22:34:08.405Z,8.98
2022-08-26T22:36:43.111Z,8.60
2022-08-26T22:39:13.117Z,8.50
2022-08-26T22:41:42.018Z,8.88
2022-08-26T22:44:12.314Z,8.02
2022-08-26T22:46:40.542Z,7.90
2022-08-26T22:49:09.880Z,7.70
2022-08-26T22:51:37.872Z,7.75
2022-08-26T22:54:06.249Z,8.30
2022-08-26T22:56:34.339Z,6.78
2022-08-26T22:59:02.328Z,7.03
2022-08-26T23:01:31.827Z,7.25
2022-08-26T23:03:59.788Z,7.63
2022-08-26T23:06:27.702Z,7.35
2022-08-26T23:08:55.622Z,8.00
2022-08-26T23:11:23.521Z,8.02
2022-08-26T23:13:51.476Z,7.65
2022-08-26T23:16:19.456Z,7.72
2022-08-26T23:18:48.834Z,7.25
2022-08-26T23:21:16.710Z,8.10
2022-08-26T23:23:45.394Z,8.40
2022-08-26T23:26:17.529Z,7.45
2022-08-26T23:28:45.797Z,7.95
2022-08-26T23:31:14.200Z,7.70
2022-08-26T23:34:00.755Z,8.40
2022-08-26T23:36:32.106Z,8.05
2022-08-26T23:39:03.187Z,7.97
2022-08-26T23:41:31.153Z,7.50
2022-08-26T23:44:03.307Z,7.13
2022-08-26T23:46:31.884Z,8.25
2022-08-26T23:49:00.061Z,7.10
2022-08-26T23:51:46.051Z,7.55
2022-08-26T23:54:16.615Z,7.60
2022-08-26T23:56:44.786Z,7.85
2022-08-26T23:59:12.823Z,8.18
